Hovedside
METAR-TAF:

METAR-TAF

Lufthavner :

Kirkenes, Norge

Kirkenes lufthavn

breddegrad: 69-44N, lengdegrad: 029-54E, høyde over havet: 9 m

Gjeldene værobservasjon

Denne rapporten ble laget for 15 minutter siden, klokken 21:50 UTC
Vind 11 kt fra Sør
Temperatur 13°C
Luftfuktighet 77%
Trykk 1012 hPa
Sikt 10 km eller mer
ingen skyer under 1500 m og ingen bygeskyer

METAR: ENKR 182150Z 17011KT CAVOK 13/09 Q1012 RMK WIND 731FT /////KT

Tid: 00:05 (22:05 UTC)

Varsel

Denne rapporten ble laget for 2 timer og 5 minutter siden, klokken 20:00 UTC
Varsel gyldig fra 18. klokken 21 UTC til 19. klokken 06 UTC
Vind 8 kt fra Sør-sørøst
Sikt 10 km eller mer
Få skyer i en høyde av 1500 ft
Spredte skyer i en høyde av 3500 ft
Brutte skyer i en høyde av 7000 ft

TAF: ENKR 182000Z 1821/1906 16008KT 9999 FEW015 SCT035 BKN070

Værobservasjoner og værvarsel for over 4000 flyplasser (METAR- og TAF-rapporter).

Tilgjengelige stasjoner er representert av de røde og gule prikkene på kartet.

Hold musepekeren over prikken for å se navnet på stasjonen.

Klikk så for å se værobservasjoner og -varsler.

For å forandre kartet kan du klikke på den grønne knappen med svart kryss for å zoome inn, på den grønne knappen med strek for å zoome ut, eller på de grønne pilene for å se tilstøtende kart.


METAR-TAF: